»·PEaware :: SWA2234 KTUS-KBUR

SWA2234 :: KTUS-KBUR

FLIGHT INFORMATION

Flight Status: Arrived
Operator:
Southwest Airlines
More flights by this operator :: More flights under this callsign
Pilot: Jamie H. (23268)
Aircraft: BOEING 737-800
(B738)
More flights by this aircraft type
Origin: KTUS Tucson Intl
United States
Destination: KBUR Bob Hope-Burbank
United States
More flights between these airports :: More routes between these airports
Route: +WLDKT3 GBN PHRED THRNE3
File this flight plan on PilotEdge
Remarks: PBN / A1B1C1D1S1S2 DOF / 190207 REG / N806SB EET / KZLA0033 OPR / SWA PER / C RMK / TCAS SIMBRIEF
Altitude:
(Current/Filed)
36,000ft
Speed:
(Current/Filed)
464kts
Departed: 06-Feb-19 06:13 PM
Arrived: 06-Feb-19 07:34 PM
Distance/Time
Traveled:
393nm/1:21
Distance/Time
To Go:
Arrived

Flight Plot

Page will automatically refresh every two minutes.

Flight plan parsing failed; only flown route is shown


Map Options




Map Legend


Flown Route
Filed Route
Departure Airport
Arrival Airport
Navaid (VOR, NDB)
Fix

Horizontal Profiles

Position Reports

Time Latitude Longitude Heading Altitude Ground
Speed
06-Feb-19 16:58 32.123304 -110.942258 48 2589ft 0kts
06-Feb-19 16:59 32.123304 -110.942258 48 2589ft 0kts
06-Feb-19 17:00 32.123304 -110.942258 48 2589ft 0kts
06-Feb-19 17:01 32.123304 -110.942258 48 2589ft 0kts
06-Feb-19 17:02 32.123304 -110.942258 48 2589ft 0kts
06-Feb-19 17:03 32.123304 -110.942258 48 2589ft 0kts
06-Feb-19 17:04 32.123304 -110.942258 48 2589ft 0kts
06-Feb-19 17:07 32.123304 -110.942258 48 2589ft 0kts
06-Feb-19 17:08 32.123304 -110.942258 48 2589ft 0kts
06-Feb-19 17:09 32.123304 -110.942258 48 2589ft 0kts
06-Feb-19 17:10 32.123304 -110.942258 48 2589ft 0kts
06-Feb-19 17:11 32.123304 -110.942258 48 2589ft 0kts
06-Feb-19 17:12 32.123304 -110.942258 48 2589ft 0kts
06-Feb-19 17:13 32.123304 -110.942258 48 2589ft 0kts
06-Feb-19 17:14 32.123304 -110.942258 48 2589ft 0kts
06-Feb-19 17:15 32.123304 -110.942258 48 2589ft 0kts
06-Feb-19 17:16 32.123304 -110.942258 48 2589ft 0kts
06-Feb-19 17:17 32.123304 -110.942258 48 2589ft 0kts
06-Feb-19 17:18 32.123304 -110.942258 48 2589ft 0kts
06-Feb-19 17:19 32.123304 -110.942258 48 2589ft 0kts
06-Feb-19 17:20 32.123304 -110.942258 48 2589ft 0kts
06-Feb-19 17:21 32.123304 -110.942258 48 2589ft 0kts
06-Feb-19 17:22 32.123304 -110.942258 48 2589ft 0kts
06-Feb-19 17:23 32.123304 -110.942258 48 2589ft 0kts
06-Feb-19 17:24 32.123304 -110.942258 48 2589ft 0kts
06-Feb-19 17:25 32.123304 -110.942258 48 2589ft 0kts
06-Feb-19 17:26 32.123304 -110.942258 48 2589ft 0kts
06-Feb-19 17:27 32.123304 -110.942258 48 2589ft 0kts
06-Feb-19 17:28 32.123304 -110.942258 48 2589ft 0kts
06-Feb-19 17:29 32.123304 -110.942258 48 2589ft 0kts
06-Feb-19 17:30 32.123304 -110.942258 48 2589ft 0kts
06-Feb-19 17:31 32.123304 -110.942258 48 2589ft 0kts
06-Feb-19 17:32 32.123304 -110.942258 48 2589ft 0kts
06-Feb-19 17:33 32.123304 -110.942258 48 2589ft 0kts
06-Feb-19 17:34 32.123304 -110.942258 48 2589ft 0kts
06-Feb-19 17:35 32.123304 -110.942258 48 2589ft 0kts
06-Feb-19 17:37 32.123304 -110.942258 48 2589ft 0kts
06-Feb-19 17:38 32.123304 -110.942258 48 2589ft 0kts
06-Feb-19 17:39 32.123304 -110.942258 48 2589ft 0kts
06-Feb-19 17:40 32.123304 -110.942258 48 2589ft 0kts
06-Feb-19 17:41 32.123304 -110.942258 48 2589ft 0kts
06-Feb-19 17:42 32.123304 -110.942258 48 2589ft 0kts
06-Feb-19 17:43 32.123304 -110.942258 48 2589ft 0kts
06-Feb-19 17:44 32.123304 -110.942258 48 2589ft 0kts
06-Feb-19 17:45 32.123304 -110.942258 48 2589ft 0kts
06-Feb-19 17:46 32.123304 -110.942258 48 2589ft 0kts
06-Feb-19 17:47 32.123304 -110.942258 48 2589ft 0kts
06-Feb-19 17:48 32.123304 -110.942258 48 2589ft 0kts
06-Feb-19 17:49 32.123304 -110.942258 48 2589ft 0kts
06-Feb-19 17:50 32.123304 -110.942258 48 2589ft 0kts
06-Feb-19 17:51 32.123304 -110.942258 48 2589ft 0kts
06-Feb-19 17:52 32.123304 -110.942258 48 2589ft 0kts
06-Feb-19 17:53 32.123304 -110.942258 48 2589ft 0kts
06-Feb-19 17:54 32.123304 -110.942258 48 2589ft 0kts
06-Feb-19 17:55 32.123304 -110.942258 48 2589ft 0kts
06-Feb-19 17:56 32.123304 -110.942258 48 2589ft 0kts
06-Feb-19 17:56 32.123304 -110.942258 48 2589ft 0kts
06-Feb-19 17:57 32.123164 -110.942443 62 2589ft 2kts
06-Feb-19 17:59 32.123231 -110.942785 130 2588ft 0kts
06-Feb-19 17:59 32.123231 -110.942785 130 2588ft 0kts
06-Feb-19 18:00 32.123231 -110.942785 130 2588ft 0kts
06-Feb-19 18:01 32.123231 -110.942785 130 2588ft 0kts
06-Feb-19 18:02 32.122103 -110.941297 301 2593ft 4kts
06-Feb-19 18:03 32.122490 -110.943372 165 2589ft 0kts
06-Feb-19 18:04 32.120345 -110.940973 135 2598ft 20kts
06-Feb-19 18:05 32.116073 -110.935950 135 2612ft 20kts
06-Feb-19 18:06 32.111714 -110.930791 135 2627ft 24kts
06-Feb-19 18:07 32.107047 -110.925374 135 2645ft 26kts
06-Feb-19 18:08 32.102385 -110.919840 133 2659ft 10kts
06-Feb-19 18:09 32.101451 -110.920193 223 2659ft 0kts
06-Feb-19 18:10 32.101451 -110.920193 223 2659ft 0kts
06-Feb-19 18:11 32.101451 -110.920193 223 2659ft 0kts
06-Feb-19 18:12 32.102026 -110.922898 314 2654ft 49kts
06-Feb-19 18:13 32.134058 -110.961909 308 3571ft 235kts
06-Feb-19 18:14 32.171544 -111.028403 302 7709ft 226kts
06-Feb-19 18:15 32.192449 -111.091166 292 10998ft 241kts
06-Feb-19 18:16 32.224697 -111.167248 299 13429ft 268kts
06-Feb-19 18:17 32.262154 -111.244661 300 15832ft 278kts
06-Feb-19 18:18 32.301660 -111.324792 300 18239ft 288kts
06-Feb-19 18:19 32.342593 -111.407777 300 20633ft 305kts
06-Feb-19 18:20 32.386772 -111.497521 300 22942ft 327kts
06-Feb-19 18:21 32.438713 -111.603269 300 23025ft 415kts
06-Feb-19 18:22 32.495617 -111.719543 299 23008ft 418kts
06-Feb-19 18:23 32.553799 -111.838768 299 23007ft 418kts
06-Feb-19 18:24 32.611928 -111.958301 299 23008ft 418kts
06-Feb-19 18:25 32.669498 -112.077004 299 25162ft 416kts
06-Feb-19 18:26 32.726546 -112.195052 299 27930ft 413kts
06-Feb-19 18:27 32.782758 -112.311737 299 30700ft 400kts
06-Feb-19 18:28 32.835651 -112.421874 299 33414ft 375kts
06-Feb-19 18:29 32.888581 -112.532424 299 34670ft 386kts
06-Feb-19 18:30 32.941393 -112.643058 299 35981ft 391kts
06-Feb-19 18:31 32.996553 -112.760588 298 36019ft 431kts
06-Feb-19 18:32 33.057564 -112.891692 298 36019ft 472kts
06-Feb-19 18:33 33.122938 -113.032708 298 36017ft 510kts
06-Feb-19 18:34 33.191414 -113.181011 298 36009ft 511kts
06-Feb-19 18:35 33.259608 -113.329314 298 36009ft 511kts
06-Feb-19 18:36 33.327712 -113.478038 298 36009ft 511kts
06-Feb-19 18:37 33.395480 -113.626646 298 36009ft 511kts
06-Feb-19 18:38 33.462683 -113.774645 298 36009ft 511kts
06-Feb-19 18:39 33.528501 -113.924590 290 35994ft 510kts
06-Feb-19 18:40 33.550056 -114.092109 275 36009ft 511kts
06-Feb-19 18:41 33.562191 -114.261300 274 36008ft 511kts
06-Feb-19 18:42 33.573924 -114.431077 274 36009ft 511kts
06-Feb-19 18:43 33.585374 -114.600201 274 36010ft 510kts
06-Feb-19 18:44 33.596110 -114.765691 272 36004ft 511kts
06-Feb-19 18:45 33.600915 -114.935635 271 36009ft 511kts
06-Feb-19 18:46 33.605412 -115.105462 271 36009ft 511kts
06-Feb-19 18:47 33.609668 -115.275496 271 36009ft 511kts
06-Feb-19 18:48 33.613676 -115.444361 271 36009ft 511kts
06-Feb-19 18:49 33.617475 -115.614995 271 36009ft 511kts
06-Feb-19 18:50 33.620631 -115.764552 271 35531ft 514kts
06-Feb-19 18:51 33.623920 -115.930774 271 33116ft 487kts
06-Feb-19 18:52 33.626856 -116.089667 271 30710ft 471kts
06-Feb-19 18:53 33.634838 -116.235602 276 28416ft 454kts
06-Feb-19 18:56 33.669886 -116.636379 276 21651ft 410kts
06-Feb-19 18:57 33.670434 -116.642763 276 21538ft 409kts
06-Feb-19 18:59 33.694558 -116.927603 275 16289ft 378kts
06-Feb-19 19:00 33.704787 -117.051057 275 15015ft 369kts
06-Feb-19 19:01 33.714845 -117.173818 275 15009ft 371kts
06-Feb-19 19:02 33.724771 -117.296486 276 14201ft 360kts
06-Feb-19 19:03 33.720245 -117.413362 265 14981ft 369kts
06-Feb-19 19:04 33.777732 -117.479149 1 15015ft 292kts
06-Feb-19 19:05 33.851273 -117.476426 2 15023ft 259kts
06-Feb-19 19:06 33.926842 -117.473543 2 15008ft 274kts
06-Feb-19 19:07 34.004715 -117.470552 2 13786ft 294kts
06-Feb-19 19:08 34.087255 -117.467353 2 11505ft 292kts
06-Feb-19 19:09 34.160849 -117.464482 2 10625ft 248kts
06-Feb-19 19:10 34.232989 -117.461641 2 12906ft 266kts
06-Feb-19 19:11 34.307687 -117.458677 2 14950ft 277kts
06-Feb-19 19:12 34.363778 -117.499278 265 15033ft 275kts
06-Feb-19 19:13 34.341808 -117.587571 252 15009ft 274kts
06-Feb-19 19:14 34.318914 -117.673967 252 15009ft 274kts
06-Feb-19 19:15 34.295489 -117.762434 252 15008ft 274kts
06-Feb-19 19:16 34.272343 -117.849901 252 15009ft 274kts
06-Feb-19 19:17 34.249012 -117.938115 252 13736ft 274kts
06-Feb-19 19:18 34.226041 -118.025052 252 12243ft 271kts
06-Feb-19 19:19 34.203319 -118.111062 252 10858ft 265kts
06-Feb-19 19:20 34.150408 -118.164982 191 8564ft 287kts
06-Feb-19 19:21 34.078043 -118.183311 191 7998ft 244kts
06-Feb-19 19:22 34.056478 -118.243155 301 6836ft 256kts
06-Feb-19 19:23 34.090589 -118.310298 301 4503ft 227kts
06-Feb-19 19:24 34.121461 -118.370904 301 3010ft 199kts
06-Feb-19 19:25 34.148853 -118.422751 306 2600ft 178kts
06-Feb-19 19:26 34.167724 -118.475970 270 2079ft 179kts
06-Feb-19 19:27 34.147572 -118.511283 151 3050ft 180kts
06-Feb-19 19:28 34.121564 -118.467267 117 3006ft 178kts
06-Feb-19 19:29 34.118430 -118.410429 91 3010ft 164kts
06-Feb-19 19:30 34.136877 -118.366876 16 2243ft 169kts
06-Feb-19 19:31 34.157272 -118.353915 23 1668ft 154kts
06-Feb-19 19:32 34.189364 -118.354062 347 795ft 138kts
06-Feb-19 19:33 34.203045 -118.357367 66 732ft 0kts
06-Feb-19 19:34 34.203151 -118.356943 87 730ft 17kts
06-Feb-19 19:35 34.198127 -118.355113 166 710ft 13kts
06-Feb-19 19:37 34.196843 -118.352411 174 702ft 0kts
06-Feb-19 19:38 34.196843 -118.352411 174 702ft 0kts

Navigation Log

Ident Type
Flight plan parsing failed, navigation log unavailable